| Date | Time | Temp. (oF) | Dew Point (oF) | Rel. Hum. (%) | Press. (in.) | Wind Dir. | Wind Speed (mph) | Hourly Rainfall (in.) |
|
|---|---|---|---|---|---|---|---|---|---|
| 1 | 07/16 | 00:00 | 76 | 71 | 87 | 29.99 | SW | 0 | 0.00 |
| 2 | 07/15 | 23:00 | 77 | 71 | 84 | 29.99 | SW | 0 | 0.00 |
| 3 | 07/15 | 22:00 | 80 | 72 | 77 | 29.99 | SW | 0 | 0.00 |
| 4 | 07/15 | 21:00 | 81 | 71 | 73 | 29.96 | SW | 2 | 0.00 |
| 5 | 07/15 | 20:00 | 86 | 69 | 59 | 29.95 | S | 3 | 0.00 |
| 6 | 07/15 | 19:00 | 89 | 69 | 53 | 29.95 | SW | 1 | 0.00 |
| 7 | 07/15 | 18:00 | 90 | 67 | 48 | 29.95 | S | 4 | 0.00 |
| 8 | 07/15 | 17:00 | 90 | 69 | 52 | 29.98 | WNW | 5 | 0.00 |
| 9 | 07/15 | 16:00 | 90 | 69 | 52 | 29.99 | WSW | 5 | 0.00 |
| 10 | 07/15 | 15:00 | 89 | 71 | 57 | 30.00 | SW | 4 | 0.00 |
| 11 | 07/15 | 14:00 | 89 | 71 | 57 | 30.00 | NNW | 1 | 0.00 |
| 12 | 07/15 | 13:00 | 87 | 74 | 66 | 30.02 | NNW | 0 | 0.00 |
| 13 | 07/15 | 12:00 | 84 | 72 | 68 | 30.03 | SW | 0 | 0.00 |
| 14 | 07/15 | 11:00 | 84 | 73 | 71 | 30.03 | NW | 2 | 0.00 |
| 15 | 07/15 | 10:00 | 82 | 74 | 77 | 30.05 | NNW | 0 | 0.00 |
| 16 | 07/15 | 09:00 | 79 | 74 | 86 | 30.06 | NNE | 0 | 0.00 |
| 17 | 07/15 | 08:00 | 73 | 72 | 100 | 30.05 | NNW | 0 | 0.00 |
| 18 | 07/15 | 07:00 | 69 | 68 | 100 | 30.04 | SSW | 0 | 0.00 |
| 19 | 07/15 | 06:00 | 68 | 68 | 100 | 30.03 | SE | 0 | 0.00 |
| 20 | 07/15 | 05:00 | 69 | 68 | 100 | 30.00 | SE | 0 | 0.00 |
| 21 | 07/15 | 04:00 | 70 | 69 | 100 | 29.99 | SE | 0 | 0.00 |
| 22 | 07/15 | 03:00 | 70 | 69 | 100 | 30.00 | NE | 0 | 0.00 |
| 23 | 07/15 | 02:00 | 71 | 70 | 99 | 30.00 | WNW | 0 | 0.00 |
| 24 | 07/15 | 01:00 | 71 | 70 | 99 | 30.00 | WNW | 0 | 0.00 |